Time;durP1;ratioP1;P1;durP2;ratioP2;P2;SDS_P1;SDS_P2;PMS_P1;PMS_P2;Temp;Humidity;BMP_temperature;BMP_pressure;BME280_temperature;BME280_humidity;BME280_pressure;Samples;Min_cycle;Max_cycle;Signal;HPM_P1;HPM_P2
2021/01/26 00:00:57;;;;;;;118.03;41.00;;;7.00;99.90;;;;;;5055234;28;20029;-80
2021/01/26 00:03:23;;;;;;;129.55;41.13;;;7.00;99.90;;;;;;5058118;28;20025;-80
2021/01/26 00:05:49;;;;;;;94.25;33.35;;;7.00;99.90;;;;;;5075985;28;20113;-80
2021/01/26 00:08:14;;;;;;;52.47;23.15;;;7.10;99.90;;;;;;5076218;28;20024;-80
2021/01/26 00:10:41;;;;;;;30.90;14.85;;;7.10;99.90;;;;;;5068723;28;20028;-81
2021/01/26 00:13:08;;;;;;;17.92;11.10;;;7.10;99.90;;;;;;5055595;28;20406;-80
2021/01/26 00:15:35;;;;;;;12.63;9.73;;;7.20;99.90;;;;;;5055358;28;20021;-80
2021/01/26 00:18:01;;;;;;;13.32;9.95;;;7.20;99.90;;;;;;5053944;28;20025;-79
2021/01/26 00:20:27;;;;;;;12.95;8.20;;;7.20;99.90;;;;;;5053745;28;20079;-79
2021/01/26 00:22:53;;;;;;;12.57;8.07;;;7.20;99.90;;;;;;5055027;28;20029;-79
2021/01/26 00:25:28;;;;;;;11.57;7.78;;;7.30;99.90;;;;;;5054857;28;20459;-80
2021/01/26 00:27:55;;;;;;;10.32;7.85;;;7.30;99.90;;;;;;5054431;28;20021;-78
2021/01/26 00:30:24;;;;;;;10.07;6.90;;;7.30;99.90;;;;;;5054331;28;20025;-80
2021/01/26 00:32:50;;;;;;;7.88;6.43;;;7.30;99.90;;;;;;5053984;28;20032;-80
2021/01/26 00:35:18;;;;;;;6.50;5.75;;;7.30;99.90;;;;;;5054598;28;20055;-80
2021/01/26 00:37:44;;;;;;;6.53;5.93;;;7.20;99.90;;;;;;5054685;28;20032;-78
2021/01/26 00:40:11;;;;;;;6.78;5.80;;;7.10;99.90;;;;;;5054553;28;20025;-80
2021/01/26 00:42:37;;;;;;;6.97;6.28;;;6.90;99.90;;;;;;5052962;28;20035;-80
2021/01/26 00:45:05;;;;;;;7.43;6.50;;;6.80;99.90;;;;;;5054480;28;20028;-80
2021/01/26 00:47:31;;;;;;;6.90;6.20;;;6.70;99.90;;;;;;5054235;28;20024;-80
2021/01/26 00:49:57;;;;;;;7.55;6.82;;;6.60;99.90;;;;;;5054384;28;20031;-80
2021/01/26 00:52:23;;;;;;;6.57;5.97;;;6.50;99.90;;;;;;5053247;28;20025;-80
2021/01/26 00:54:49;;;;;;;8.23;6.45;;;6.50;99.90;;;;;;5054462;28;20384;-80
2021/01/26 00:57:21;;;;;;;7.55;6.47;;;6.40;99.90;;;;;;5054485;28;20033;-80
2021/01/26 00:59:48;;;;;;;7.47;6.75;;;6.40;99.90;;;;;;5054141;28;20386;-79
2021/01/26 01:02:15;;;;;;;7.28;6.57;;;6.30;99.90;;;;;;5052658;28;20076;-79
2021/01/26 01:04:42;;;;;;;6.97;6.03;;;6.20;99.90;;;;;;5053863;28;20383;-80
2021/01/26 01:07:08;;;;;;;7.25;6.55;;;6.10;99.90;;;;;;5053858;28;20147;-80
2021/01/26 01:09:33;;;;;;;7.88;6.60;;;6.00;99.90;;;;;;5054334;28;20055;-80
2021/01/26 01:12:00;;;;;;;7.53;6.80;;;5.90;99.90;;;;;;5052337;28;20029;-80
2021/01/26 01:14:26;;;;;;;8.50;6.72;;;5.80;99.90;;;;;;5054274;28;20017;-80
2021/01/26 01:16:55;;;;;;;7.55;6.75;;;5.80;99.90;;;;;;5052777;28;20029;-80
2021/01/26 01:19:22;;;;;;;7.38;6.38;;;5.70;99.90;;;;;;5053897;28;20021;-80
2021/01/26 01:21:47;;;;;;;7.95;6.63;;;5.60;99.90;;;;;;5054308;28;20060;-80
2021/01/26 01:24:14;;;;;;;9.00;7.47;;;5.50;99.90;;;;;;5054148;28;20545;-80
2021/01/26 01:26:40;;;;;;;6.60;5.97;;;5.40;99.90;;;;;;5053853;28;20017;-81
2021/01/26 01:29:05;;;;;;;7.10;6.18;;;5.40;99.90;;;;;;5052756;28;20116;-81
2021/01/26 01:31:31;;;;;;;6.47;5.72;;;5.30;99.90;;;;;;5052615;28;20025;-80
2021/01/26 01:33:57;;;;;;;6.35;5.50;;;5.20;99.90;;;;;;5054030;28;20021;-81
2021/01/26 01:36:23;;;;;;;6.15;5.55;;;5.10;99.90;;;;;;5053696;28;20033;-80
2021/01/26 01:38:48;;;;;;;5.75;4.90;;;5.00;99.90;;;;;;5051915;28;20032;-79
2021/01/26 01:41:14;;;;;;;5.72;5.20;;;4.90;99.90;;;;;;5053803;28;20025;-80
2021/01/26 01:43:40;;;;;;;5.57;4.95;;;4.90;99.90;;;;;;5052315;28;20021;-80
2021/01/26 01:46:16;;;;;;;5.68;5.07;;;4.80;99.90;;;;;;5053201;28;20094;-80
2021/01/26 01:48:42;;;;;;;5.97;5.15;;;4.80;99.90;;;;;;5053291;28;20455;-81
2021/01/26 01:51:13;;;;;;;5.68;4.78;;;4.70;99.90;;;;;;5053575;28;20017;-81
2021/01/26 01:53:46;;;;;;;4.80;4.30;;;4.70;99.90;;;;;;5053421;28;20052;-81
2021/01/26 01:56:22;;;;;;;6.10;4.60;;;4.60;99.90;;;;;;5052501;28;20021;-81
2021/01/26 01:58:55;;;;;;;5.07;4.57;;;4.60;99.90;;;;;;5053230;28;20150;-80
2021/01/26 02:01:24;;;;;;;5.22;4.72;;;4.50;99.90;;;;;;5052889;28;20045;-80
2021/01/26 02:03:54;;;;;;;5.25;4.65;;;4.50;99.90;;;;;;5053266;28;20108;-80
2021/01/26 02:06:24;;;;;;;4.97;4.47;;;4.40;99.90;;;;;;5051803;28;20366;-79
2021/01/26 02:08:53;;;;;;;4.20;3.80;;;4.40;99.90;;;;;;5052951;28;20068;-80
2021/01/26 02:11:20;;;;;;;5.18;3.92;;;4.30;99.90;;;;;;5051542;28;20032;-81
2021/01/26 02:13:47;;;;;;;5.57;4.60;;;4.20;99.90;;;;;;5052099;28;20021;-79
2021/01/26 02:16:31;;;;;;;5.03;4.03;;;4.20;99.90;;;;;;5053371;28;20031;-80
2021/01/26 02:19:36;;;;;;;4.63;3.85;;;4.20;99.90;;;;;;5053201;28;20418;-80
2021/01/26 02:22:17;;;;;;;5.95;4.40;;;4.10;99.90;;;;;;5053158;28;20025;-81
2021/01/26 02:25:01;;;;;;;6.10;4.18;;;4.10;99.90;;;;;;5056440;28;20033;-80
2021/01/26 02:28:00;;;;;;;5.15;4.28;;;4.10;99.90;;;;;;5057274;28;20033;-80
2021/01/26 02:30:50;;;;;;;5.97;4.88;;;4.00;99.90;;;;;;5055843;28;20033;-80
2021/01/26 02:33:43;;;;;;;6.25;4.65;;;4.00;99.90;;;;;;5055863;28;20025;-80
2021/01/26 02:36:47;;;;;;;10.00;5.18;;;3.90;99.90;;;;;;5056979;28;20029;-80
2021/01/26 02:39:38;;;;;;;7.40;5.43;;;3.90;99.90;;;;;;5044359;28;20037;-81
2021/01/26 02:42:18;;;;;;;8.38;5.20;;;3.80;99.90;;;;;;5054772;28;20033;-80
2021/01/26 02:45:05;;;;;;;6.75;5.40;;;3.70;99.90;;;;;;5057016;28;20071;-79
2021/01/26 02:47:54;;;;;;;6.80;5.30;;;3.70;99.90;;;;;;5057116;28;20025;-81
2021/01/26 02:50:49;;;;;;;8.43;5.65;;;3.70;99.90;;;;;;5056530;28;20371;-80
2021/01/26 02:53:28;;;;;;;10.30;5.90;;;3.70;99.90;;;;;;5041383;28;20056;-79
2021/01/26 02:55:53;;;;;;;8.63;6.05;;;3.60;99.90;;;;;;5056762;28;20024;-80
2021/01/26 02:58:44;;;;;;;6.70;5.70;;;3.60;99.90;;;;;;5056962;28;20021;-80
2021/01/26 03:01:12;;;;;;;10.60;6.05;;;3.60;99.90;;;;;;5056420;28;20045;-80
2021/01/26 03:03:47;;;;;;;8.68;6.28;;;3.60;99.90;;;;;;5055322;28;20017;-80
2021/01/26 03:06:20;;;;;;;9.98;7.30;;;3.50;99.90;;;;;;5055558;28;20028;-80
2021/01/26 03:08:57;;;;;;;11.02;6.95;;;3.50;99.90;;;;;;5056566;28;20549;-79
2021/01/26 03:11:33;;;;;;;9.57;6.68;;;3.50;99.90;;;;;;5056270;28;20017;-81
2021/01/26 03:14:10;;;;;;;8.48;6.60;;;3.50;99.90;;;;;;5056245;28;20021;-79
2021/01/26 03:16:37;;;;;;;9.70;6.68;;;3.50;99.90;;;;;;5055431;28;20025;-79
2021/01/26 03:19:18;;;;;;;9.45;6.85;;;3.50;99.90;;;;;;5054637;28;20021;-79
2021/01/26 03:21:49;;;;;;;10.25;7.68;;;3.50;99.90;;;;;;5056456;28;20060;-80
2021/01/26 03:24:24;;;;;;;10.98;7.47;;;3.50;99.90;;;;;;5056376;28;20460;-80
2021/01/26 03:26:51;;;;;;;11.25;8.20;;;3.60;99.90;;;;;;5056523;28;20028;-79
2021/01/26 03:29:27;;;;;;;12.93;8.45;;;3.60;99.90;;;;;;5054859;28;20032;-80
2021/01/26 03:31:56;;;;;;;11.07;7.80;;;3.60;99.90;;;;;;5056081;28;20075;-81
2021/01/26 03:34:22;;;;;;;13.77;8.30;;;3.60;99.90;;;;;;5055616;28;20024;-81
2021/01/26 03:36:48;;;;;;;11.50;7.97;;;3.60;99.90;;;;;;5056101;28;20021;-80
2021/01/26 03:39:14;;;;;;;12.63;8.80;;;3.60;99.90;;;;;;5054746;28;20060;-81
2021/01/26 03:41:40;;;;;;;13.85;9.55;;;3.60;99.90;;;;;;5056089;28;20024;-80
2021/01/26 03:44:10;;;;;;;17.52;9.60;;;3.60;99.90;;;;;;5055874;28;20025;-80
2021/01/26 03:46:47;;;;;;;16.05;9.15;;;3.60;99.90;;;;;;5055591;28;20100;-80
2021/01/26 03:49:51;;;;;;;16.45;10.05;;;3.60;99.90;;;;;;5055645;28;20485;-81
2021/01/26 03:52:31;;;;;;;21.95;10.63;;;3.60;99.90;;;;;;5054456;28;20063;-81
2021/01/26 03:55:15;;;;;;;19.13;11.18;;;3.60;99.90;;;;;;5055769;28;20479;-80
2021/01/26 03:58:18;;;;;;;15.60;9.63;;;3.60;99.90;;;;;;5054512;28;20025;-81
2021/01/26 04:01:20;;;;;;;15.07;10.30;;;3.60;99.90;;;;;;5055347;28;20029;-80
2021/01/26 04:04:01;;;;;;;16.13;10.15;;;3.60;99.90;;;;;;5055660;28;20094;-81
2021/01/26 04:06:34;;;;;;;20.30;11.65;;;3.60;99.90;;;;;;5055517;28;20055;-79
2021/01/26 04:09:23;;;;;;;17.95;11.20;;;3.60;99.90;;;;;;5054492;28;20099;-80
2021/01/26 04:12:16;;;;;;;17.98;10.02;;;3.60;99.90;;;;;;5055335;28;20017;-81
2021/01/26 04:14:58;;;;;;;17.25;9.88;;;3.60;99.90;;;;;;5054170;28;20083;-81
2021/01/26 04:17:31;;;;;;;18.75;10.80;;;3.60;99.90;;;;;;5053743;28;20017;-81
2021/01/26 04:20:16;;;;;;;16.70;10.73;;;3.60;99.90;;;;;;5054533;28;20025;-81
2021/01/26 04:22:42;;;;;;;17.58;11.55;;;3.60;99.90;;;;;;5055061;28;20024;-81
2021/01/26 04:25:42;;;;;;;20.48;11.65;;;3.60;99.90;;;;;;5054960;28;20100;-81
2021/01/26 04:28:11;;;;;;;17.58;11.55;;;3.50;99.90;;;;;;5042832;28;20029;-81
2021/01/26 04:30:39;;;;;;;17.88;10.93;;;3.50;99.90;;;;;;5054601;28;20021;-81
2021/01/26 04:33:11;;;;;;;22.38;13.18;;;3.50;99.90;;;;;;5054699;28;20021;-82
2021/01/26 04:35:37;;;;;;;21.95;12.07;;;3.50;99.90;;;;;;5054680;28;20052;-81
2021/01/26 04:38:03;;;;;;;21.17;11.80;;;3.50;99.90;;;;;;5053320;28;20375;-82
2021/01/26 04:40:31;;;;;;;19.48;11.73;;;3.50;99.90;;;;;;5054455;28;20025;-81
2021/01/26 04:43:29;;;;;;;18.73;12.50;;;3.50;99.90;;;;;;5053241;28;20112;-80
2021/01/26 04:46:39;;;;;;;20.17;12.48;;;3.50;99.90;;;;;;5052391;28;20017;-82
2021/01/26 04:49:10;;;;;;;18.33;11.82;;;3.50;99.90;;;;;;5042874;28;20029;-82
2021/01/26 04:51:36;;;;;;;20.83;12.45;;;3.50;99.90;;;;;;5054295;28;20120;-79
2021/01/26 04:54:05;;;;;;;19.30;11.77;;;3.50;99.90;;;;;;5053399;28;20021;-80
2021/01/26 04:57:03;;;;;;;17.77;10.82;;;3.40;99.90;;;;;;5054261;28;20025;-79
2021/01/26 04:59:31;;;;;;;18.73;11.40;;;3.50;99.90;;;;;;5042316;28;20033;-80
2021/01/26 05:02:18;;;;;;;18.48;10.55;;;3.40;99.90;;;;;;5053851;28;20376;-80
2021/01/26 05:04:48;;;;;;;18.20;10.57;;;3.40;99.90;;;;;;5054116;28;20044;-81
2021/01/26 05:07:17;;;;;;;15.43;9.93;;;3.50;99.90;;;;;;5053874;28;20025;-80
2021/01/26 05:09:52;;;;;;;15.10;9.52;;;3.40;99.90;;;;;;5054004;28;20827;-80
2021/01/26 05:12:21;;;;;;;15.43;9.88;;;3.40;99.90;;;;;;5054009;28;20036;-80
2021/01/26 05:14:52;;;;;;;16.27;10.18;;;3.40;99.90;;;;;;5053327;28;20167;-80
2021/01/26 05:17:28;;;;;;;14.20;9.55;;;3.40;99.90;;;;;;5053647;28;20025;-81
2021/01/26 05:20:02;;;;;;;15.43;9.20;;;3.40;99.90;;;;;;5053981;28;20029;-81
2021/01/26 05:22:45;;;;;;;13.75;8.60;;;3.40;99.90;;;;;;5054127;28;20025;-80
2021/01/26 05:25:14;;;;;;;11.65;7.97;;;3.40;99.90;;;;;;5053597;28;20028;-82
2021/01/26 05:27:40;;;;;;;12.32;7.65;;;3.40;99.90;;;;;;5053093;28;20020;-81
2021/01/26 05:30:10;;;;;;;11.40;7.53;;;3.40;99.90;;;;;;5053407;28;20036;-82
2021/01/26 05:32:37;;;;;;;13.07;7.93;;;3.40;99.90;;;;;;5053362;28;20091;-81
2021/01/26 05:35:05;;;;;;;12.80;7.13;;;3.40;99.90;;;;;;5053196;28;20032;-82
2021/01/26 05:37:32;;;;;;;12.02;7.25;;;3.40;99.90;;;;;;5052119;28;20025;-82
2021/01/26 05:39:57;;;;;;;11.57;7.40;;;3.40;99.90;;;;;;5052353;28;20451;-82
2021/01/26 05:42:24;;;;;;;13.32;7.90;;;3.40;99.90;;;;;;5051763;28;20124;-81
2021/01/26 05:44:55;;;;;;;10.70;6.50;;;3.40;99.90;;;;;;5053538;28;20021;-81
2021/01/26 05:47:31;;;;;;;9.85;6.88;;;3.40;99.90;;;;;;5053086;28;20451;-82
2021/01/26 05:49:57;;;;;;;10.70;7.22;;;3.40;99.90;;;;;;5053237;28;20769;-82
2021/01/26 05:52:39;;;;;;;11.90;7.68;;;3.40;99.90;;;;;;5054012;28;20021;-81
2021/01/26 05:55:27;;;;;;;10.15;6.85;;;3.40;99.90;;;;;;5052737;28;20017;-82
2021/01/26 05:57:53;;;;;;;11.80;7.68;;;3.40;99.90;;;;;;5052303;28;20540;-81
2021/01/26 06:00:27;;;;;;;13.15;7.75;;;3.30;99.90;;;;;;5052230;28;20082;-82
2021/01/26 06:03:22;;;;;;;11.60;8.02;;;3.40;99.90;;;;;;5052430;28;20041;-82
2021/01/26 06:06:04;;;;;;;10.00;6.53;;;3.40;99.90;;;;;;5048076;28;20040;-81
2021/01/26 06:08:31;;;;;;;;;;;3.40;99.90;;;;;;5053215;28;20772;-83
2021/01/26 06:10:58;;;;;;;9.60;6.55;;;3.40;99.90;;;;;;5051291;28;19952;-83
2021/01/26 06:13:25;;;;;;;12.32;6.88;;;3.40;99.90;;;;;;5052336;28;20096;-82
2021/01/26 06:16:09;;;;;;;11.57;6.85;;;3.40;99.90;;;;;;5052170;28;20471;-82
2021/01/26 06:18:37;;;;;;;10.68;6.97;;;3.50;99.90;;;;;;5052156;28;20091;-82
2021/01/26 06:21:10;;;;;;;11.57;6.93;;;3.50;99.90;;;;;;5054143;28;20032;-83
2021/01/26 06:23:36;;;;;;;15.68;8.35;;;3.60;99.90;;;;;;5052548;28;20083;-82
2021/01/26 06:26:07;;;;;;;12.65;8.05;;;3.60;99.90;;;;;;5051898;28;20046;-80
2021/01/26 06:29:01;;;;;;;10.77;7.43;;;3.60;99.90;;;;;;5055264;28;20040;-79
2021/01/26 06:31:58;;;;;;;14.00;8.23;;;3.70;99.90;;;;;;5053005;28;20017;-80
2021/01/26 06:34:41;;;;;;;14.13;8.70;;;3.70;99.90;;;;;;5049659;28;20075;-77
2021/01/26 06:37:31;;;;;;;13.07;8.52;;;3.70;99.90;;;;;;5053278;28;20104;-83
2021/01/26 06:40:26;;;;;;;16.00;8.98;;;3.70;99.90;;;;;;5061396;28;20085;-81
2021/01/26 06:43:10;;;;;;;13.05;8.68;;;3.70;99.90;;;;;;5057655;28;20033;-82
2021/01/26 06:45:50;;;;;;;13.77;10.00;;;3.70;99.90;;;;;;5060931;28;20031;-82
2021/01/26 06:48:46;;;;;;;15.38;9.68;;;3.70;99.90;;;;;;5052378;28;20033;-83
2021/01/26 06:51:45;;;;;;;13.68;9.45;;;3.70;99.90;;;;;;5052715;28;20103;-81
2021/01/26 06:54:28;;;;;;;19.08;9.52;;;3.80;99.90;;;;;;5052303;28;20021;-79
2021/01/26 06:57:11;;;;;;;16.55;9.70;;;3.80;99.90;;;;;;5052666;28;20026;-79
2021/01/26 06:59:57;;;;;;;15.27;9.60;;;3.80;99.90;;;;;;5050731;28;20048;-82
2021/01/26 07:03:00;;;;;;;14.65;9.23;;;3.80;99.90;;;;;;5049490;28;20526;-82
2021/01/26 07:05:44;;;;;;;;;;;3.80;99.90;;;;;;5051979;28;20025;-83
2021/01/26 07:08:31;;;;;;;18.42;9.65;;;3.80;99.90;;;;;;5051149;28;19927;-83
2021/01/26 07:10:59;;;;;;;19.40;10.00;;;3.80;99.90;;;;;;5054580;28;20052;-83
2021/01/26 07:13:49;;;;;;;14.57;9.13;;;3.80;99.90;;;;;;5054918;28;20029;-82
2021/01/26 07:16:47;;;;;;;16.27;9.88;;;3.80;99.90;;;;;;5053890;28;20092;-80
2021/01/26 07:19:25;;;;;;;17.17;9.10;;;3.70;99.90;;;;;;5053259;28;20040;-80
2021/01/26 07:22:09;;;;;;;15.07;9.98;;;3.70;99.90;;;;;;5053335;28;20025;-79
2021/01/26 07:25:07;;;;;;;14.65;9.95;;;3.70;99.90;;;;;;5053512;28;20021;-79
2021/01/26 07:28:08;;;;;;;14.73;9.85;;;3.70;99.90;;;;;;5050241;28;20060;-79
2021/01/26 07:30:44;;;;;;;18.38;9.80;;;3.80;99.90;;;;;;5041411;28;20116;-81
2021/01/26 07:33:16;;;;;;;14.27;8.73;;;3.80;99.90;;;;;;5054019;28;20021;-81
2021/01/26 07:36:12;;;;;;;14.38;9.27;;;3.80;99.90;;;;;;5052390;28;20029;-81
2021/01/26 07:39:09;;;;;;;12.38;8.13;;;3.70;99.90;;;;;;5052386;28;20052;-81
2021/01/26 07:42:10;;;;;;;14.50;8.77;;;3.80;99.90;;;;;;5053857;28;20538;-81
2021/01/26 07:44:56;;;;;;;12.73;8.80;;;3.70;99.90;;;;;;5052836;28;20017;-81
2021/01/26 07:47:36;;;;;;;12.43;8.27;;;3.70;99.90;;;;;;5053711;28;20127;-81
2021/01/26 07:50:07;;;;;;;12.80;9.25;;;3.80;99.90;;;;;;5053528;28;20091;-81
2021/01/26 07:52:34;;;;;;;14.02;9.32;;;3.70;99.90;;;;;;5051808;28;20112;-79
2021/01/26 07:55:36;;;;;;;13.20;9.10;;;3.80;99.90;;;;;;5053041;28;20031;-83
2021/01/26 07:58:05;;;;;;;13.82;8.82;;;3.80;99.90;;;;;;5048450;28;20041;-80
2021/01/26 08:00:35;;;;;;;16.85;9.60;;;3.90;99.90;;;;;;5053177;28;20053;-80
2021/01/26 08:03:02;;;;;;;12.55;8.95;;;3.90;99.90;;;;;;5053419;28;20055;-82
2021/01/26 08:05:55;;;;;;;13.00;8.70;;;4.00;99.90;;;;;;5054169;28;20106;-82
2021/01/26 08:08:26;;;;;;;11.43;7.82;;;4.00;99.90;;;;;;5053661;28;20021;-82
2021/01/26 08:11:15;;;;;;;11.53;7.67;;;4.00;99.90;;;;;;5051976;28;20021;-81
2021/01/26 08:13:49;;;;;;;12.63;7.63;;;4.00;99.90;;;;;;5053810;28;20028;-82
2021/01/26 08:16:37;;;;;;;16.50;8.55;;;4.00;99.90;;;;;;5052357;28;20033;-82
2021/01/26 08:19:31;;;;;;;14.27;8.65;;;4.10;99.90;;;;;;5054149;28;20045;-81
2021/01/26 08:21:58;;;;;;;10.75;7.55;;;4.10;99.90;;;;;;5051202;28;20048;-81
2021/01/26 08:24:35;;;;;;;11.43;7.03;;;4.10;99.90;;;;;;5053287;28;20162;-84
2021/01/26 08:27:30;;;;;;;12.60;7.85;;;4.10;99.90;;;;;;5052992;28;20032;-81
2021/01/26 08:30:03;;;;;;;12.43;8.23;;;4.10;99.90;;;;;;5053476;28;20372;-80
2021/01/26 08:32:28;;;;;;;10.43;7.15;;;4.10;99.90;;;;;;5053440;28;20370;-82
2021/01/26 08:35:25;;;;;;;12.25;7.60;;;4.20;99.90;;;;;;5054046;28;20029;-82
2021/01/26 08:37:53;;;;;;;14.02;7.35;;;4.20;99.90;;;;;;5050774;28;20052;-82
2021/01/26 08:40:41;;;;;;;11.13;7.60;;;4.30;99.90;;;;;;5054919;28;20471;-81
2021/01/26 08:43:08;;;;;;;13.02;8.00;;;4.50;99.90;;;;;;5051529;28;20052;-81
2021/01/26 08:45:33;;;;;;;12.05;7.70;;;4.70;99.90;;;;;;5054486;28;20017;-82
2021/01/26 08:48:30;;;;;;;9.80;6.72;;;4.90;99.90;;;;;;5052811;28;20029;-81
2021/01/26 08:50:56;;;;;;;13.13;6.70;;;5.00;99.90;;;;;;5048488;28;20040;-81
2021/01/26 08:53:27;;;;;;;10.82;7.40;;;5.10;99.90;;;;;;5053069;28;20029;-83
2021/01/26 08:56:03;;;;;;;11.67;7.00;;;5.30;99.90;;;;;;5053406;28;20025;-81
2021/01/26 08:58:51;;;;;;;11.35;7.22;;;5.50;99.90;;;;;;5052006;28;20426;-83
2021/01/26 09:01:23;;;;;;;11.85;7.75;;;5.60;99.90;;;;;;5052267;28;20507;-83
2021/01/26 09:03:56;;;;;;;11.50;7.63;;;5.60;99.90;;;;;;5052783;28;20028;-81
2021/01/26 09:06:42;;;;;;;12.57;6.75;;;5.60;99.90;;;;;;5053521;28;20104;-81
2021/01/26 09:09:23;;;;;;;9.52;6.07;;;5.70;99.90;;;;;;5053233;28;20032;-82
2021/01/26 09:11:55;;;;;;;8.95;6.50;;;5.70;99.90;;;;;;5052144;28;20029;-82
2021/01/26 09:14:45;;;;;;;10.02;7.00;;;5.70;99.90;;;;;;5052933;28;20039;-82
2021/01/26 09:17:22;;;;;;;8.77;6.38;;;5.90;99.90;;;;;;5052226;28;20039;-81
2021/01/26 09:20:13;;;;;;;13.98;6.63;;;6.30;99.90;;;;;;5052622;28;20032;-81
2021/01/26 09:22:40;;;;;;;10.80;5.97;;;6.60;99.90;;;;;;5047726;28;20120;-81
2021/01/26 09:25:14;;;;;;;9.48;5.70;;;7.00;99.90;;;;;;5052850;28;20458;-82
2021/01/26 09:27:40;;;;;;;7.40;4.90;;;7.50;99.90;;;;;;5053128;28;20025;-81
2021/01/26 09:30:09;;;;;;;9.40;6.28;;;8.00;99.90;;;;;;5052409;28;20028;-81
2021/01/26 09:32:36;;;;;;;7.88;5.28;;;8.30;99.90;;;;;;5051240;28;20027;-81
2021/01/26 09:35:27;;;;;;;7.65;5.35;;;8.50;99.90;;;;;;5052435;28;20367;-81
2021/01/26 09:38:05;;;;;;;7.78;5.55;;;8.50;99.90;;;;;;5050519;28;20119;-82
2021/01/26 09:40:32;;;;;;;6.38;5.03;;;8.30;99.90;;;;;;5052065;28;20119;-82
2021/01/26 09:43:22;;;;;;;8.60;5.82;;;8.10;99.90;;;;;;5052662;28;20447;-81
2021/01/26 09:46:05;;;;;;;9.85;4.93;;;8.00;99.90;;;;;;5051625;28;20398;-82
2021/01/26 09:48:44;;;;;;;11.05;5.38;;;7.80;99.90;;;;;;5051922;28;20340;-83
2021/01/26 09:51:30;;;;;;;7.03;5.20;;;7.60;99.90;;;;;;5051824;28;20028;-81
2021/01/26 09:54:09;;;;;;;6.85;5.03;;;7.50;99.90;;;;;;5053088;28;20526;-81
2021/01/26 09:56:38;;;;;;;8.40;4.97;;;7.50;99.90;;;;;;5052926;28;20025;-83
2021/01/26 09:59:06;;;;;;;9.85;5.90;;;7.40;99.90;;;;;;5052044;28;20025;-82
2021/01/26 10:01:33;;;;;;;8.27;4.75;;;7.30;99.90;;;;;;5050548;28;20037;-82
2021/01/26 10:04:03;;;;;;;6.97;5.22;;;7.30;99.90;;;;;;5053297;28;20059;-82
2021/01/26 10:06:30;;;;;;;9.57;5.32;;;7.20;99.90;;;;;;5055084;28;20390;-82
2021/01/26 10:08:56;;;;;;;8.10;5.22;;;7.20;99.90;;;;;;5054577;28;20025;-83
2021/01/26 10:11:29;;;;;;;7.20;5.30;;;7.30;99.90;;;;;;5055453;28;20082;-83
2021/01/26 10:14:26;;;;;;;8.13;5.25;;;7.20;99.90;;;;;;5055102;28;20429;-82
2021/01/26 10:17:02;;;;;;;6.57;5.03;;;7.30;99.90;;;;;;5051462;28;20036;-82
2021/01/26 10:19:33;;;;;;;7.18;4.85;;;7.20;99.90;;;;;;5051079;28;20025;-82
2021/01/26 10:22:18;;;;;;;9.20;5.38;;;7.20;99.90;;;;;;5051654;28;20467;-82
2021/01/26 10:24:45;;;;;;;8.63;5.47;;;7.20;99.90;;;;;;5050367;28;20395;-82
2021/01/26 10:27:14;;;;;;;9.07;5.55;;;7.30;99.90;;;;;;5051467;28;20029;-82
2021/01/26 10:29:41;;;;;;;7.88;5.88;;;7.20;99.90;;;;;;5050100;28;20108;-83
2021/01/26 10:32:11;;;;;;;9.60;6.05;;;7.30;99.90;;;;;;5049647;28;20025;-82
2021/01/26 10:34:49;;;;;;;8.27;6.28;;;7.30;99.90;;;;;;5051457;28;20033;-81
2021/01/26 10:37:24;;;;;;;9.50;6.22;;;7.40;99.90;;;;;;5051381;28;20339;-82
2021/01/26 10:40:11;;;;;;;9.02;6.13;;;7.50;99.90;;;;;;5049361;28;20029;-83
2021/01/26 10:42:39;;;;;;;13.02;6.50;;;7.60;99.90;;;;;;5058818;28;20104;-82
2021/01/26 10:45:06;;;;;;;9.32;6.60;;;7.80;99.90;;;;;;5052184;28;20056;-83
2021/01/26 10:47:36;;;;;;;11.30;6.18;;;7.90;99.90;;;;;;5055084;28;20336;-82
2021/01/26 10:50:04;;;;;;;10.70;6.97;;;8.10;99.90;;;;;;5055043;28;20020;-83
2021/01/26 10:52:36;;;;;;;9.50;6.15;;;8.20;99.90;;;;;;5055310;28;20484;-84
2021/01/26 10:55:03;;;;;;;9.40;6.60;;;8.20;99.90;;;;;;5054699;28;20111;-82
2021/01/26 10:57:29;;;;;;;13.85;6.80;;;8.20;99.90;;;;;;5054922;28;20786;-82
2021/01/26 10:59:55;;;;;;;12.98;6.78;;;8.20;99.90;;;;;;5055041;28;20021;-82
2021/01/26 11:02:21;;;;;;;10.02;6.72;;;8.10;99.90;;;;;;5054690;28;20068;-82
2021/01/26 11:04:46;;;;;;;11.38;6.78;;;8.00;99.90;;;;;;5055168;28;20053;-82
2021/01/26 11:07:12;;;;;;;8.95;6.25;;;7.90;99.90;;;;;;5055253;28;20433;-82
2021/01/26 11:09:38;;;;;;;8.93;6.10;;;7.80;99.90;;;;;;5055281;28;20091;-84
2021/01/26 11:12:04;;;;;;;10.30;6.85;;;7.80;99.90;;;;;;5055830;28;20024;-85
2021/01/26 11:14:30;;;;;;;15.48;6.90;;;7.80;99.90;;;;;;5055602;28;20501;-84
2021/01/26 11:16:55;;;;;;;9.77;6.40;;;7.80;99.90;;;;;;5053874;28;20029;-85
2021/01/26 11:19:22;;;;;;;8.57;5.53;;;7.80;99.90;;;;;;5055502;28;20029;-84
2021/01/26 11:21:48;;;;;;;13.85;6.60;;;7.90;99.90;;;;;;5055376;28;20071;-87
2021/01/26 11:24:13;;;;;;;7.93;6.10;;;7.80;99.90;;;;;;5053629;28;20410;-84
2021/01/26 11:26:39;;;;;;;9.27;5.97;;;7.80;99.90;;;;;;5055376;28;20070;-84
2021/01/26 11:29:05;;;;;;;8.85;6.10;;;7.80;99.90;;;;;;5053576;28;20065;-85
2021/01/26 11:31:31;;;;;;;8.63;5.68;;;7.80;99.90;;;;;;5053157;28;20040;-85
2021/01/26 11:33:56;;;;;;;9.05;5.80;;;7.80;99.90;;;;;;5055082;28;20021;-85
2021/01/26 11:36:22;;;;;;;7.82;5.65;;;7.70;99.90;;;;;;5054983;28;20461;-85
2021/01/26 11:38:48;;;;;;;8.35;5.38;;;7.70;99.90;;;;;;5052998;28;20064;-84
2021/01/26 11:41:14;;;;;;;12.73;6.03;;;7.60;99.90;;;;;;5053451;28;20032;-83
2021/01/26 11:43:39;;;;;;;12.40;5.80;;;7.50;99.90;;;;;;5055004;28;20029;-84
2021/01/26 11:46:06;;;;;;;7.18;5.50;;;7.40;99.90;;;;;;5055304;28;20025;-85
2021/01/26 11:48:32;;;;;;;7.88;5.45;;;7.30;99.90;;;;;;5054736;28;20022;-85
2021/01/26 11:50:59;;;;;;;8.13;5.40;;;7.20;99.90;;;;;;5055767;28;20108;-85
2021/01/26 11:53:25;;;;;;;7.57;5.55;;;7.20;99.90;;;;;;5053753;28;20025;-84
2021/01/26 11:55:51;;;;;;;9.98;5.57;;;7.10;99.90;;;;;;5054208;28;20091;-86
2021/01/26 11:58:18;;;;;;;7.40;5.05;;;7.10;99.90;;;;;;5055797;28;20025;-86
2021/01/26 12:00:44;;;;;;;8.15;5.45;;;7.10;99.90;;;;;;5055596;28;20025;-83
2021/01/26 12:03:10;;;;;;;7.22;5.38;;;7.00;99.90;;;;;;5055014;28;20055;-83
2021/01/26 12:05:38;;;;;;;10.23;5.30;;;6.90;99.90;;;;;;5054800;28;20352;-84
2021/01/26 12:08:05;;;;;;;5.32;4.60;;;6.90;99.90;;;;;;5055163;28;20061;-84
2021/01/26 12:10:32;;;;;;;8.40;5.20;;;6.80;99.90;;;;;;5053513;28;20408;-84
2021/01/26 12:12:58;;;;;;;6.97;4.90;;;6.80;99.90;;;;;;5054339;28;20025;-84
2021/01/26 12:15:27;;;;;;;6.95;4.70;;;6.70;99.90;;;;;;5053845;28;20360;-84
2021/01/26 12:17:52;;;;;;;7.82;4.53;;;6.70;99.90;;;;;;5053238;28;20382;-83
2021/01/26 12:20:19;;;;;;;7.53;4.50;;;6.70;99.90;;;;;;5054370;28;20041;-81
2021/01/26 12:22:45;;;;;;;5.22;4.28;;;6.70;99.90;;;;;;5053551;28;20474;-82
2021/01/26 12:25:12;;;;;;;6.50;5.03;;;6.70;99.90;;;;;;5054379;28;20029;-83
2021/01/26 12:27:38;;;;;;;10.93;4.82;;;6.60;99.90;;;;;;5053425;28;20032;-82
2021/01/26 12:30:06;;;;;;;5.75;4.38;;;6.60;99.90;;;;;;5054191;28;20021;-82
2021/01/26 12:32:33;;;;;;;6.68;4.40;;;6.60;99.90;;;;;;5053838;28;20021;-81
2021/01/26 12:34:59;;;;;;;6.72;4.22;;;6.60;99.90;;;;;;5052807;28;20033;-81
2021/01/26 12:37:25;;;;;;;7.30;4.35;;;6.60;99.90;;;;;;5053646;28;20021;-82
2021/01/26 12:39:51;;;;;;;14.52;5.05;;;6.60;99.90;;;;;;5052913;28;20024;-81
2021/01/26 12:42:17;;;;;;;6.90;4.35;;;6.50;99.90;;;;;;5052970;28;20055;-82
2021/01/26 12:44:43;;;;;;;7.45;4.90;;;6.50;99.90;;;;;;5053127;28;20467;-81
2021/01/26 12:47:10;;;;;;;6.18;4.38;;;6.50;99.90;;;;;;5050737;28;20028;-77
2021/01/26 12:49:36;;;;;;;8.40;4.70;;;6.50;99.90;;;;;;5055071;28;20141;-82
2021/01/26 12:52:02;;;;;;;6.55;4.60;;;6.50;99.90;;;;;;5052325;28;20036;-83
2021/01/26 12:54:28;;;;;;;8.55;4.95;;;6.40;99.90;;;;;;5051424;28;20043;-84
2021/01/26 12:56:54;;;;;;;11.35;5.10;;;6.40;99.90;;;;;;5052692;28;20497;-86
2021/01/26 12:59:20;;;;;;;10.32;5.35;;;6.30;99.90;;;;;;5053136;28;20486;-85
2021/01/26 13:01:45;;;;;;;7.40;5.07;;;6.30;99.90;;;;;;5050583;28;20053;-84
2021/01/26 13:04:11;;;;;;;9.45;5.00;;;6.30;99.90;;;;;;5052172;28;20528;-85
2021/01/26 13:06:37;;;;;;;6.32;4.60;;;6.30;99.90;;;;;;5052281;28;20044;-87
2021/01/26 13:09:03;;;;;;;13.85;5.78;;;6.30;99.90;;;;;;5052950;28;20419;-84
2021/01/26 13:11:29;;;;;;;8.73;5.35;;;6.30;99.90;;;;;;5052813;28;20021;-87
2021/01/26 13:13:54;;;;;;;7.25;5.10;;;6.30;99.90;;;;;;5053077;28;20029;-87
2021/01/26 13:16:20;;;;;;;7.43;4.97;;;6.30;99.90;;;;;;5051848;28;20021;-85
2021/01/26 13:18:46;;;;;;;15.20;5.70;;;6.30;99.90;;;;;;5053201;28;20029;-85
2021/01/26 13:21:13;;;;;;;7.38;5.03;;;6.20;99.90;;;;;;5051876;28;20031;-86
2021/01/26 13:23:41;;;;;;;9.02;5.13;;;6.20;99.90;;;;;;5052584;28;20083;-85
2021/01/26 13:26:10;;;;;;;7.25;5.13;;;6.20;99.90;;;;;;5051820;28;20025;-88